createdAt,value
2022-11-18T00:00:32.798Z,28.80
2022-11-18T00:05:39.470Z,26.00
2022-11-18T00:10:45.135Z,28.10
2022-11-18T00:15:59.552Z,26.20
2022-11-18T00:21:07.868Z,27.80
2022-11-18T00:26:14.695Z,26.70
2022-11-18T00:31:20.287Z,23.50
2022-11-18T00:36:26.045Z,26.90
2022-11-18T00:41:50.798Z,22.10
2022-11-18T00:46:56.805Z,23.40
2022-11-18T00:52:02.784Z,24.50
2022-11-18T00:57:08.739Z,24.30
2022-11-18T01:02:14.486Z,25.60
2022-11-18T01:07:20.221Z,37.50
2022-11-18T01:12:46.297Z,37.70
2022-11-18T01:17:53.635Z,31.30
2022-11-18T01:22:59.431Z,26.60
2022-11-18T01:28:05.198Z,28.90
2022-11-18T01:33:12.115Z,28.30
2022-11-18T01:38:17.692Z,29.50
2022-11-18T01:43:24.346Z,23.90
2022-11-18T01:48:34.330Z,23.90
2022-11-18T01:53:45.443Z,27.60
2022-11-18T01:58:55.602Z,23.30
2022-11-18T02:04:01.490Z,22.90
2022-11-18T02:09:07.577Z,22.20
2022-11-18T02:14:13.606Z,21.90
2022-11-18T02:19:38.742Z,21.60
2022-11-18T02:24:56.487Z,27.20
2022-11-18T02:30:05.905Z,20.00
2022-11-18T02:35:18.781Z,18.60
2022-11-18T02:40:29.309Z,18.20
2022-11-18T02:45:37.314Z,19.90
2022-11-18T02:50:44.972Z,22.70
2022-11-18T02:55:53.238Z,43.70
2022-11-18T03:01:01.489Z,29.20
2022-11-18T03:06:19.917Z,34.50
2022-11-18T03:11:28.383Z,31.20
2022-11-18T03:16:38.317Z,27.80
2022-11-18T03:21:51.643Z,27.80
2022-11-18T03:27:04.899Z,30.00
2022-11-18T03:32:17.782Z,31.00
2022-11-18T03:37:26.302Z,36.50
2022-11-18T03:42:36.367Z,34.10
2022-11-18T03:47:45.482Z,32.40
2022-11-18T03:52:53.397Z,27.50
2022-11-18T03:58:06.036Z,27.10
2022-11-18T04:03:13.070Z,27.00
2022-11-18T04:08:27.485Z,28.20
2022-11-18T04:13:36.716Z,30.10
2022-11-18T04:18:42.707Z,33.90
2022-11-18T04:23:48.501Z,32.30
2022-11-18T04:28:54.403Z,29.90
2022-11-18T04:34:00.354Z,25.50
2022-11-18T04:39:07.272Z,28.10
2022-11-18T04:44:13.551Z,23.90
2022-11-18T04:49:19.665Z,29.00
2022-11-18T04:54:26.911Z,29.80
2022-11-18T04:59:32.727Z,23.80
2022-11-18T05:04:38.514Z,27.90
2022-11-18T05:09:44.415Z,27.30
2022-11-18T05:14:51.120Z,37.30
2022-11-18T05:19:56.998Z,31.00
2022-11-18T05:25:02.694Z,29.60
2022-11-18T05:30:10.319Z,26.30
2022-11-18T05:35:16.282Z,19.00
2022-11-18T05:40:22.023Z,20.10
2022-11-18T05:45:27.640Z,20.20
2022-11-18T05:50:35.278Z,28.20
2022-11-18T05:55:44.416Z,28.10
2022-11-18T06:00:53.739Z,21.90
2022-11-18T06:06:03.363Z,19.00
2022-11-18T06:11:14.822Z,19.30
2022-11-18T06:16:23.709Z,25.80
2022-11-18T06:21:29.978Z,21.10
2022-11-18T06:26:36.035Z,20.60
2022-11-18T06:31:41.978Z,18.40
2022-11-18T06:36:47.771Z,17.70
2022-11-18T06:41:55.211Z,16.60
2022-11-18T06:47:02.526Z,22.90
2022-11-18T06:52:08.326Z,22.30
2022-11-18T06:57:14.234Z,19.50
2022-11-18T07:02:19.921Z,22.50
2022-11-18T07:07:25.781Z,20.40
2022-11-18T07:12:31.799Z,13.70
2022-11-18T07:17:37.643Z,12.80
2022-11-18T07:22:43.354Z,13.20
2022-11-18T07:27:48.955Z,16.20
2022-11-18T07:32:54.779Z,12.80
2022-11-18T07:38:00.540Z,10.70
2022-11-18T07:43:07.278Z,13.70
2022-11-18T07:48:13.582Z,13.40
2022-11-18T07:53:19.254Z,11.00
2022-11-18T07:58:25.186Z,13.70
2022-11-18T08:03:30.783Z,10.00
2022-11-18T08:08:37.130Z,18.50
2022-11-18T08:13:42.920Z,14.10
2022-11-18T08:18:48.946Z,10.30
2022-11-18T08:23:56.397Z,11.90
2022-11-18T08:29:02.226Z,8.60
2022-11-18T08:34:08.935Z,12.30
2022-11-18T08:39:15.197Z,7.80
2022-11-18T08:44:20.975Z,10.00
2022-11-18T08:49:32.189Z,9.20
2022-11-18T08:54:38.523Z,8.60
2022-11-18T08:59:44.423Z,9.50
2022-11-18T09:04:50.884Z,13.50
2022-11-18T09:09:56.533Z,9.90
2022-11-18T09:15:18.380Z,7.00
2022-11-18T09:20:24.653Z,7.00
2022-11-18T09:25:30.302Z,7.70
2022-11-18T09:30:36.095Z,9.90
2022-11-18T09:35:45.184Z,8.20
2022-11-18T09:41:04.551Z,6.80
2022-11-18T09:46:21.991Z,7.00
2022-11-18T09:51:35.188Z,8.30
2022-11-18T09:56:41.785Z,9.00
2022-11-18T10:01:48.899Z,7.80
2022-11-18T10:06:55.194Z,14.40
2022-11-18T10:12:16.570Z,6.50
2022-11-18T10:17:33.196Z,8.50
2022-11-18T10:22:44.426Z,11.90
2022-11-18T10:27:51.682Z,11.10
2022-11-18T10:32:59.890Z,9.20
2022-11-18T10:38:16.784Z,9.50
2022-11-18T10:43:45.327Z,8.80
2022-11-18T10:49:14.210Z,10.80
2022-11-18T10:54:22.622Z,13.20
2022-11-18T10:59:33.701Z,8.70
2022-11-18T11:09:58.767Z,8.80
2022-11-18T11:15:09.189Z,12.30
2022-11-18T11:20:19.260Z,12.40
2022-11-18T11:31:13.154Z,11.30
2022-11-18T11:37:32.494Z,9.80
2022-11-18T11:42:50.663Z,10.30
2022-11-18T11:48:24.502Z,8.10
2022-11-18T11:53:54.873Z,10.10
2022-11-18T11:59:19.301Z,11.90
2022-11-18T12:04:39.736Z,9.70
2022-11-18T12:09:58.712Z,9.90
2022-11-18T12:15:16.824Z,14.40
2022-11-18T12:20:45.169Z,13.80
2022-11-18T12:26:04.198Z,10.50
2022-11-18T12:31:31.958Z,8.90
2022-11-18T12:36:39.515Z,13.70
2022-11-18T12:42:17.941Z,14.40
2022-11-18T12:47:54.669Z,10.60
2022-11-18T12:53:00.311Z,10.10
2022-11-18T12:58:24.212Z,11.40
2022-11-18T13:03:30.577Z,18.90
2022-11-18T13:08:37.037Z,12.90
2022-11-18T13:13:44.177Z,9.40
2022-11-18T13:18:52.080Z,14.60
2022-11-18T13:24:02.597Z,13.10
2022-11-18T13:29:27.067Z,11.50
2022-11-18T13:34:47.095Z,15.00
2022-11-18T13:39:53.593Z,14.70
2022-11-18T13:45:00.628Z,18.80
2022-11-18T13:50:16.859Z,29.90
2022-11-18T13:55:25.159Z,43.30
2022-11-18T14:00:34.657Z,26.30
2022-11-18T14:05:41.653Z,33.10
2022-11-18T14:10:47.522Z,18.40
2022-11-18T14:15:54.614Z,18.70
2022-11-18T14:21:01.684Z,15.90
2022-11-18T14:26:08.167Z,17.60
2022-11-18T14:31:26.144Z,18.70
2022-11-18T14:36:32.151Z,24.10
2022-11-18T14:41:47.226Z,27.10
2022-11-18T14:46:57.216Z,27.40
2022-11-18T14:52:04.623Z,50.70
2022-11-18T14:57:17.165Z,33.10
2022-11-18T15:02:23.036Z,19.40
2022-11-18T15:07:30.218Z,22.40
2022-11-18T15:12:37.592Z,16.70
2022-11-18T15:17:43.903Z,15.70
2022-11-18T15:22:49.816Z,11.90
2022-11-18T15:27:55.402Z,14.70
2022-11-18T15:33:01.025Z,15.90
2022-11-18T15:38:06.797Z,15.00
2022-11-18T15:43:12.462Z,21.80
2022-11-18T15:48:18.244Z,20.10
2022-11-18T15:53:23.945Z,23.00
2022-11-18T15:58:34.534Z,17.80
2022-11-18T16:03:41.883Z,18.30
2022-11-18T16:08:47.844Z,19.50
2022-11-18T16:13:53.568Z,18.90
2022-11-18T16:19:01.308Z,15.90
2022-11-18T16:24:10.738Z,15.50
2022-11-18T16:29:18.552Z,24.40
2022-11-18T16:34:27.121Z,16.20
2022-11-18T16:39:32.949Z,21.10
2022-11-18T16:44:38.840Z,17.80
2022-11-18T16:49:44.932Z,18.10
2022-11-18T16:54:51.272Z,18.60
2022-11-18T16:59:57.073Z,25.00
2022-11-18T17:05:02.972Z,22.30
2022-11-18T17:10:20.219Z,18.90
2022-11-18T17:15:25.992Z,16.30
2022-11-18T17:20:31.796Z,16.90
2022-11-18T17:25:39.851Z,22.00
2022-11-18T17:30:49.910Z,28.10
2022-11-18T17:36:03.867Z,31.70
2022-11-18T17:41:31.372Z,22.50
2022-11-18T17:46:38.419Z,26.60
2022-11-18T17:51:46.209Z,24.20
2022-11-18T17:56:52.566Z,21.50
2022-11-18T18:01:59.909Z,19.00
2022-11-18T18:07:06.605Z,21.70
2022-11-18T18:12:30.881Z,21.40
2022-11-18T18:17:37.268Z,24.10
2022-11-18T18:22:43.022Z,24.20
2022-11-18T18:27:49.000Z,19.80
2022-11-18T18:32:54.648Z,19.10
2022-11-18T18:38:01.385Z,19.30
2022-11-18T18:43:06.983Z,47.70
2022-11-18T18:48:12.632Z,36.10
2022-11-18T18:53:18.581Z,51.20
2022-11-18T18:58:24.185Z,23.50
2022-11-18T19:03:30.043Z,43.80
2022-11-18T19:08:35.776Z,40.20
2022-11-18T19:13:41.769Z,55.30
2022-11-18T19:18:47.833Z,24.90
2022-11-18T19:23:55.405Z,29.90
2022-11-18T19:29:01.377Z,20.30
2022-11-18T19:34:07.210Z,20.00
2022-11-18T19:39:13.077Z,33.30
2022-11-18T19:44:19.088Z,28.80
2022-11-18T19:49:24.750Z,26.90
2022-11-18T19:54:30.787Z,28.30
2022-11-18T19:59:36.438Z,20.70
2022-11-18T20:05:02.015Z,30.10
2022-11-18T20:10:09.972Z,29.80
2022-11-18T20:15:15.817Z,28.20
2022-11-18T20:20:22.096Z,22.60
2022-11-18T20:25:27.980Z,29.80
2022-11-18T20:30:33.701Z,25.90
2022-11-18T20:35:39.313Z,18.30
2022-11-18T20:40:45.195Z,23.70
2022-11-18T20:45:57.729Z,24.30
2022-11-18T20:51:06.613Z,30.50
2022-11-18T20:56:14.140Z,21.20
2022-11-18T21:01:21.901Z,24.60
2022-11-18T21:06:29.526Z,27.50
2022-11-18T21:11:36.942Z,32.10
2022-11-18T21:16:43.393Z,33.20
2022-11-18T21:21:50.962Z,30.80
2022-11-18T21:26:57.949Z,20.50
2022-11-18T21:32:03.911Z,28.10
2022-11-18T21:37:09.668Z,19.60
2022-11-18T21:42:15.274Z,32.80
2022-11-18T21:47:20.892Z,29.00
2022-11-18T21:52:26.816Z,27.20
2022-11-18T21:57:32.501Z,23.20
2022-11-18T22:02:38.639Z,26.60
2022-11-18T22:07:44.257Z,26.80
2022-11-18T22:12:51.564Z,29.20
2022-11-18T22:17:58.113Z,24.70
2022-11-18T22:23:05.045Z,30.90
2022-11-18T22:28:11.077Z,25.20
2022-11-18T22:33:16.853Z,27.40
2022-11-18T22:38:22.480Z,23.30
2022-11-18T22:43:28.969Z,24.30
2022-11-18T22:48:35.296Z,39.60
2022-11-18T22:53:41.049Z,33.20
2022-11-18T22:58:46.892Z,28.70
2022-11-18T23:03:54.124Z,25.00
2022-11-18T23:08:59.920Z,29.20
2022-11-18T23:14:07.947Z,30.60
2022-11-18T23:19:15.520Z,27.50
2022-11-18T23:24:21.233Z,26.80
2022-11-18T23:29:26.893Z,25.10
2022-11-18T23:34:33.080Z,21.30
2022-11-18T23:39:39.138Z,22.40
2022-11-18T23:44:50.087Z,22.50
2022-11-18T23:49:55.793Z,23.80
2022-11-18T23:55:01.624Z,23.40
